Time;durP1;ratioP1;P1;durP2;ratioP2;P2;SDS_P1;SDS_P2;PMS_P1;PMS_P2;Temp;Humidity;BMP_temperature;BMP_pressure;BME280_temperature;BME280_humidity;BME280_pressure;Samples;Min_cycle;Max_cycle;Signal;HPM_P1;HPM_P2
2022/03/15 00:01:57;;;;;;;3.40;2.70;;;;;;;;;;5052942;28;20213;-37
2022/03/15 00:04:24;;;;;;;4.87;3.03;;;;;;;;;;5053527;28;20198;-37
2022/03/15 00:06:53;;;;;;;5.83;3.53;;;;;;;;;;5055348;28;20275;-34
2022/03/15 00:09:20;;;;;;;6.20;3.37;;;;;;;;;;5054929;28;20241;-40
2022/03/15 00:11:47;;;;;;;3.57;2.63;;;;;;;;;;5046087;28;20214;-42
2022/03/15 00:14:15;;;;;;;13.97;5.43;;;;;;;;;;5054194;28;20208;-36
2022/03/15 00:16:43;;;;;;;16.57;6.03;;;;;;;;;;5054835;28;20205;-32
2022/03/15 00:19:10;;;;;;;17.47;6.57;;;;;;;;;;5050331;28;20229;-37
2022/03/15 00:21:38;;;;;;;17.37;6.50;;;;;;;;;;5049416;28;20285;-33
2022/03/15 00:24:08;;;;;;;14.13;5.83;;;;;;;;;;5054115;28;20234;-43
2022/03/15 00:26:35;;;;;;;10.73;4.50;;;;;;;;;;5054202;28;20222;-42
2022/03/15 00:29:02;;;;;;;6.77;3.30;;;;;;;;;;5044689;28;21006;-33
2022/03/15 00:31:30;;;;;;;6.03;3.57;;;;;;;;;;5047403;28;20684;-30
2022/03/15 00:33:57;;;;;;;7.20;4.50;;;;;;;;;;5052098;28;20609;-37
2022/03/15 00:36:25;;;;;;;8.47;4.50;;;;;;;;;;5036756;28;20234;-37
2022/03/15 00:38:52;;;;;;;5.90;3.17;;;;;;;;;;5049682;28;20216;-31
2022/03/15 00:41:21;;;;;;;10.53;4.70;;;;;;;;;;5052360;28;20705;-37
2022/03/15 00:43:49;;;;;;;6.43;4.10;;;;;;;;;;5047455;28;20205;-40
2022/03/15 00:46:17;;;;;;;7.53;4.90;;;;;;;;;;5049613;28;20688;-35
2022/03/15 00:48:44;;;;;;;7.33;4.37;;;;;;;;;;5053799;28;20260;-36
2022/03/15 00:51:11;;;;;;;7.23;4.30;;;;;;;;;;5054115;28;20264;-37
2022/03/15 00:53:38;;;;;;;6.53;3.80;;;;;;;;;;5050293;28;20284;-33
2022/03/15 00:56:06;;;;;;;5.03;3.57;;;;;;;;;;5047068;28;20225;-38
2022/03/15 00:58:35;;;;;;;7.87;3.73;;;;;;;;;;5054307;28;20259;-40
2022/03/15 01:01:02;;;;;;;6.83;3.87;;;;;;;;;;5054576;28;20214;-37
2022/03/15 01:03:29;;;;;;;4.10;3.10;;;;;;;;;;5048558;28;20229;-39
2022/03/15 01:05:58;;;;;;;6.07;3.70;;;;;;;;;;5053609;28;20226;-41
2022/03/15 01:08:25;;;;;;;5.97;3.63;;;;;;;;;;5054130;28;20240;-38
2022/03/15 01:10:53;;;;;;;8.33;3.80;;;;;;;;;;5042870;28;20230;-37
2022/03/15 01:13:20;;;;;;;6.67;4.03;;;;;;;;;;5053825;28;20224;-38
2022/03/15 01:15:50;;;;;;;7.87;3.83;;;;;;;;;;5054008;28;20253;-35
2022/03/15 01:18:17;;;;;;;6.33;3.83;;;;;;;;;;5046165;28;20210;-36
2022/03/15 01:20:45;;;;;;;5.87;3.57;;;;;;;;;;5050855;28;20237;-37
2022/03/15 01:23:12;;;;;;;5.73;3.30;;;;;;;;;;5054128;28;20587;-41
2022/03/15 01:25:39;;;;;;;3.20;2.87;;;;;;;;;;5047947;28;20264;-40
2022/03/15 01:28:07;;;;;;;4.60;3.37;;;;;;;;;;5045060;28;20206;-40
2022/03/15 01:30:34;;;;;;;8.37;3.33;;;;;;;;;;5053793;28;20218;-36
2022/03/15 01:33:03;;;;;;;5.97;3.20;;;;;;;;;;5053199;28;20206;-35
2022/03/15 01:35:30;;;;;;;4.73;3.67;;;;;;;;;;5049187;28;20737;-42
2022/03/15 01:37:58;;;;;;;4.87;3.60;;;;;;;;;;5052195;28;20252;-37
2022/03/15 01:40:25;;;;;;;5.80;3.10;;;;;;;;;;5052534;28;20229;-44
2022/03/15 01:42:52;;;;;;;5.17;3.13;;;;;;;;;;5049999;28;20935;-38
2022/03/15 01:45:19;;;;;;;7.63;3.40;;;;;;;;;;5034104;28;20229;-37
2022/03/15 01:47:47;;;;;;;10.47;3.67;;;;;;;;;;5049996;28;20213;-38
2022/03/15 01:50:15;;;;;;;4.40;3.10;;;;;;;;;;5052955;28;20291;-38
2022/03/15 01:52:44;;;;;;;5.57;3.20;;;;;;;;;;5052374;28;20224;-37
2022/03/15 01:55:11;;;;;;;6.70;3.60;;;;;;;;;;5050376;28;20229;-41
2022/03/15 01:57:39;;;;;;;6.17;3.33;;;;;;;;;;5042188;28;20595;-39
2022/03/15 02:00:06;;;;;;;6.73;3.63;;;;;;;;;;5047125;28;20209;-32
2022/03/15 02:02:34;;;;;;;11.03;3.60;;;;;;;;;;5044741;28;20232;-38
2022/03/15 02:05:01;;;;;;;4.20;3.23;;;;;;;;;;5052343;28;20257;-36
2022/03/15 02:07:30;;;;;;;6.17;3.73;;;;;;;;;;5053323;28;20209;-35
2022/03/15 02:09:57;;;;;;;6.03;3.70;;;;;;;;;;5045519;28;20210;-33
2022/03/15 02:12:24;;;;;;;7.73;4.00;;;;;;;;;;5052635;28;20206;-36
2022/03/15 02:14:51;;;;;;;11.70;3.87;;;;;;;;;;5053065;28;20308;-37
2022/03/15 02:17:18;;;;;;;6.83;3.23;;;;;;;;;;5045695;28;20623;-40
2022/03/15 02:19:46;;;;;;;3.93;2.93;;;;;;;;;;5049171;28;20242;-33
2022/03/15 02:22:14;;;;;;;5.57;3.07;;;;;;;;;;5052762;28;20892;-36
2022/03/15 02:24:42;;;;;;;6.13;3.20;;;;;;;;;;5052594;28;20337;-42
2022/03/15 02:27:09;;;;;;;6.27;3.40;;;;;;;;;;5049848;28;20206;-38
2022/03/15 02:29:36;;;;;;;4.50;2.57;;;;;;;;;;5052961;28;20751;-40
2022/03/15 02:32:04;;;;;;;7.17;3.47;;;;;;;;;;5052724;28;20250;-35
2022/03/15 02:34:31;;;;;;;5.20;3.47;;;;;;;;;;5052694;28;20237;-36
2022/03/15 02:36:58;;;;;;;3.97;3.23;;;;;;;;;;5047800;28;20247;-38
2022/03/15 02:39:28;;;;;;;4.63;2.97;;;;;;;;;;5052538;28;20206;-35
2022/03/15 02:41:55;;;;;;;4.37;3.33;;;;;;;;;;5052590;28;20240;-39
2022/03/15 02:44:23;;;;;;;5.10;3.83;;;;;;;;;;5052251;28;20213;-39
2022/03/15 02:46:50;;;;;;;6.30;3.73;;;;;;;;;;5048797;28;20241;-38
2022/03/15 02:49:18;;;;;;;7.07;4.00;;;;;;;;;;5052658;28;20229;-35
2022/03/15 02:51:45;;;;;;;6.07;3.73;;;;;;;;;;5052473;28;20304;-36
2022/03/15 02:54:13;;;;;;;5.77;3.30;;;;;;;;;;5052292;28;20202;-41
2022/03/15 02:56:43;;;;;;;4.90;3.60;;;;;;;;;;5050112;28;20222;-33
2022/03/15 02:59:14;;;;;;;5.73;3.80;;;;;;;;;;5048646;28;20260;-34
2022/03/15 03:01:41;;;;;;;5.73;3.77;;;;;;;;;;5052286;28;20628;-33
2022/03/15 03:04:10;;;;;;;6.40;3.67;;;;;;;;;;5044614;28;20205;-34
2022/03/15 03:06:37;;;;;;;3.80;3.40;;;;;;;;;;5040466;28;20222;-40
2022/03/15 03:09:05;;;;;;;5.30;3.67;;;;;;;;;;5049492;28;20260;-39
2022/03/15 03:11:32;;;;;;;5.37;3.33;;;;;;;;;;5041753;28;20225;-32
2022/03/15 03:14:02;;;;;;;5.80;3.30;;;;;;;;;;5053755;28;20275;-32
2022/03/15 03:16:29;;;;;;;3.57;3.27;;;;;;;;;;5056828;28;20256;-31
2022/03/15 03:18:58;;;;;;;4.40;3.20;;;;;;;;;;5054188;28;20259;-42
2022/03/15 03:21:26;;;;;;;4.27;3.07;;;;;;;;;;5053603;28;20206;-36
2022/03/15 03:23:53;;;;;;;5.20;3.17;;;;;;;;;;5073972;22;20226;-89
2022/03/15 03:26:21;;;;;;;3.67;3.20;;;;;;;;;;5047768;28;20202;-89
2022/03/15 03:28:49;;;;;;;4.87;3.30;;;;;;;;;;5051989;28;20210;-89
2022/03/15 03:31:18;;;;;;;5.30;3.50;;;;;;;;;;5051923;28;20255;-89
2022/03/15 03:33:45;;;;;;;6.53;3.53;;;;;;;;;;5042942;28;20707;-89
2022/03/15 03:36:12;;;;;;;6.40;3.60;;;;;;;;;;5051820;28;20240;-89
2022/03/15 03:38:41;;;;;;;3.73;2.70;;;;;;;;;;5051608;28;20222;-89
2022/03/15 03:41:08;;;;;;;4.27;3.40;;;;;;;;;;5035114;28;20281;-90
2022/03/15 03:43:36;;;;;;;4.90;3.07;;;;;;;;;;5051867;28;20213;-89
2022/03/15 03:46:03;;;;;;;6.23;3.57;;;;;;;;;;5051747;28;20275;-90
2022/03/15 03:48:32;;;;;;;4.13;3.10;;;;;;;;;;5051322;28;20217;-90
2022/03/15 03:51:00;;;;;;;6.80;3.30;;;;;;;;;;5051802;28;20264;-89
2022/03/15 03:53:27;;;;;;;3.97;2.73;;;;;;;;;;5051474;28;20309;-89
2022/03/15 03:55:54;;;;;;;5.20;3.13;;;;;;;;;;5051621;28;20229;-89
2022/03/15 03:58:22;;;;;;;5.50;3.10;;;;;;;;;;5051511;28;20614;-89
2022/03/15 04:00:49;;;;;;;6.60;3.53;;;;;;;;;;5051314;28;20288;-89
2022/03/15 04:03:17;;;;;;;5.33;2.97;;;;;;;;;;5051219;28;20268;-89
2022/03/15 04:05:46;;;;;;;6.57;3.23;;;;;;;;;;5051364;28;20264;-89
2022/03/15 04:08:14;;;;;;;7.73;3.37;;;;;;;;;;5051323;28;20660;-89
2022/03/15 04:10:45;;;;;;;5.63;3.37;;;;;;;;;;5051006;28;20678;-89
2022/03/15 04:13:17;;;;;;;3.87;3.30;;;;;;;;;;5051541;28;20771;-89
2022/03/15 04:15:44;;;;;;;4.77;3.10;;;;;;;;;;5051404;28;20615;-89
2022/03/15 04:18:11;;;;;;;5.23;3.67;;;;;;;;;;5051291;28;20260;-89
2022/03/15 04:20:39;;;;;;;4.57;3.33;;;;;;;;;;5050950;28;20589;-89
2022/03/15 04:23:08;;;;;;;3.40;2.80;;;;;;;;;;5050399;28;20233;-89
2022/03/15 04:25:36;;;;;;;4.87;3.53;;;;;;;;;;5050559;28;20198;-90
2022/03/15 04:28:03;;;;;;;7.50;3.43;;;;;;;;;;5050881;28;20198;-89
2022/03/15 04:30:30;;;;;;;5.47;3.77;;;;;;;;;;5050812;28;20216;-89
2022/03/15 04:33:01;;;;;;;3.50;3.20;;;;;;;;;;5050709;28;20241;-90
2022/03/15 04:35:29;;;;;;;5.73;4.10;;;;;;;;;;5050884;28;20214;-89
2022/03/15 04:37:56;;;;;;;5.80;3.40;;;;;;;;;;5050720;28;20275;-89
2022/03/15 04:40:25;;;;;;;4.97;3.03;;;;;;;;;;5051391;28;20218;-89
2022/03/15 04:42:54;;;;;;;6.57;3.33;;;;;;;;;;5050349;28;20659;-90
2022/03/15 04:45:22;;;;;;;3.67;3.20;;;;;;;;;;5051120;28;20206;-89
2022/03/15 04:47:50;;;;;;;5.17;3.17;;;;;;;;;;5051095;28;20266;-88
2022/03/15 04:50:17;;;;;;;4.57;3.33;;;;;;;;;;5042342;28;20217;-89
2022/03/15 04:52:44;;;;;;;3.63;3.30;;;;;;;;;;5050484;28;20719;-89
2022/03/15 04:55:11;;;;;;;4.03;3.40;;;;;;;;;;5050522;28;20598;-89
2022/03/15 04:57:40;;;;;;;6.13;3.70;;;;;;;;;;5050159;28;20202;-90
2022/03/15 05:00:09;;;;;;;5.90;3.77;;;;;;;;;;5033851;28;20195;-89
2022/03/15 05:02:36;;;;;;;7.13;3.73;;;;;;;;;;5050472;28;20214;-90
2022/03/15 05:05:04;;;;;;;9.87;3.67;;;;;;;;;;5050199;28;20285;-88
2022/03/15 05:07:31;;;;;;;6.17;3.70;;;;;;;;;;5049954;28;20247;-89
2022/03/15 05:12:45;;;;;;;10.73;4.30;;;;;;;;;;5046063;28;20232;-90
2022/03/15 05:15:13;;;;;;;6.90;3.33;;;;;;;;;;5049531;28;20226;-88
2022/03/15 05:17:40;;;;;;;5.17;3.27;;;;;;;;;;5050368;28;20233;-89
2022/03/15 05:20:07;;;;;;;7.30;3.50;;;;;;;;;;5050346;28;20260;-91
2022/03/15 05:22:35;;;;;;;4.17;3.77;;;;;;;;;;5049934;28;20638;-89
2022/03/15 05:25:02;;;;;;;7.20;3.27;;;;;;;;;;5050533;28;20213;-89
2022/03/15 05:27:33;;;;;;;5.87;3.90;;;;;;;;;;5051074;28;20218;-90
2022/03/15 05:30:02;;;;;;;3.83;3.00;;;;;;;;;;5054152;28;20264;-89
2022/03/15 05:32:29;;;;;;;4.60;3.43;;;;;;;;;;5053859;28;20222;-89
2022/03/15 05:34:57;;;;;;;5.17;3.83;;;;;;;;;;5057533;28;20206;-89
2022/03/15 05:37:24;;;;;;;5.67;4.00;;;;;;;;;;5053303;28;20225;-89
2022/03/15 05:39:51;;;;;;;5.57;3.47;;;;;;;;;;5053669;28;20205;-89
2022/03/15 05:42:18;;;;;;;5.30;3.87;;;;;;;;;;5053515;28;20228;-89
2022/03/15 05:44:46;;;;;;;4.90;3.43;;;;;;;;;;5053622;28;20212;-88
2022/03/15 05:47:18;;;;;;;7.40;3.40;;;;;;;;;;5052733;28;20615;-89
2022/03/15 05:49:47;;;;;;;5.97;3.77;;;;;;;;;;5053112;28;20269;-88
2022/03/15 05:52:14;;;;;;;4.53;3.20;;;;;;;;;;5053526;28;20225;-89
2022/03/15 05:54:41;;;;;;;5.93;3.63;;;;;;;;;;5053692;28;20202;-89
2022/03/15 05:57:09;;;;;;;5.00;3.43;;;;;;;;;;5053217;28;20664;-89
2022/03/15 05:59:36;;;;;;;6.23;3.50;;;;;;;;;;5053773;28;20201;-88
2022/03/15 06:02:03;;;;;;;5.00;3.40;;;;;;;;;;5052915;28;20198;-89
2022/03/15 06:04:30;;;;;;;5.60;4.00;;;;;;;;;;5062190;28;20225;-92
2022/03/15 06:07:00;;;;;;;5.80;3.50;;;;;;;;;;5072495;28;20190;-89
2022/03/15 06:09:28;;;;;;;5.90;3.57;;;;;;;;;;5072935;28;20568;-91
2022/03/15 06:11:55;;;;;;;10.03;4.90;;;;;;;;;;5072368;28;20210;-91
2022/03/15 06:14:23;;;;;;;7.77;4.40;;;;;;;;;;5070184;28;20222;-91
2022/03/15 06:16:50;;;;;;;11.13;4.83;;;;;;;;;;5068781;28;20198;-89
2022/03/15 06:19:18;;;;;;;8.83;5.67;;;;;;;;;;5065400;28;20217;-90
2022/03/15 06:21:45;;;;;;;15.67;8.93;;;;;;;;;;5070763;28;20263;-89
2022/03/15 06:24:14;;;;;;;6.90;4.40;;;;;;;;;;5056221;28;20252;-89
2022/03/15 06:26:42;;;;;;;5.77;3.93;;;;;;;;;;5053724;28;20202;-89
2022/03/15 06:29:09;;;;;;;8.83;3.70;;;;;;;;;;5033301;28;20203;-89
2022/03/15 06:31:37;;;;;;;5.87;3.83;;;;;;;;;;5040587;28;20232;-89
2022/03/15 06:34:05;;;;;;;6.70;4.60;;;;;;;;;;5052750;28;20309;-89
2022/03/15 06:36:34;;;;;;;7.10;4.50;;;;;;;;;;5051977;28;20225;-88
2022/03/15 06:39:03;;;;;;;4.57;3.87;;;;;;;;;;5044996;28;20597;-89
2022/03/15 06:41:33;;;;;;;6.77;4.03;;;;;;;;;;5054898;28;20284;-89
2022/03/15 06:44:00;;;;;;;8.17;3.77;;;;;;;;;;5062306;28;20231;-90
2022/03/15 06:46:27;;;;;;;6.33;3.70;;;;;;;;;;5046981;28;20198;-90
2022/03/15 06:48:55;;;;;;;3.57;3.27;;;;;;;;;;5056775;28;20794;-90
2022/03/15 06:51:23;;;;;;;6.07;4.00;;;;;;;;;;5056295;28;20201;-90
2022/03/15 06:53:50;;;;;;;5.70;4.00;;;;;;;;;;5062963;28;20228;-90
2022/03/15 06:56:17;;;;;;;7.03;4.27;;;;;;;;;;5052879;28;20213;-90
2022/03/15 06:58:46;;;;;;;5.80;4.03;;;;;;;;;;5062565;28;20218;-90
2022/03/15 07:01:15;;;;;;;4.47;3.80;;;;;;;;;;5075991;28;20224;-89
2022/03/15 07:03:42;;;;;;;12.53;3.80;;;;;;;;;;5054088;28;20221;-90
2022/03/15 07:06:10;;;;;;;5.27;3.63;;;;;;;;;;5051869;28;20206;-90
2022/03/15 07:08:37;;;;;;;5.90;3.50;;;;;;;;;;5062417;28;20186;-89
2022/03/15 07:11:04;;;;;;;5.33;3.87;;;;;;;;;;5061783;28;20209;-90
2022/03/15 07:13:32;;;;;;;5.00;3.80;;;;;;;;;;5049718;28;20225;-90
2022/03/15 07:16:01;;;;;;;4.43;3.70;;;;;;;;;;5060635;28;20206;-90
2022/03/15 07:18:28;;;;;;;9.03;4.40;;;;;;;;;;5059912;28;20207;-90
2022/03/15 07:20:56;;;;;;;4.90;3.90;;;;;;;;;;5047271;28;20349;-90
2022/03/15 07:23:23;;;;;;;4.30;3.50;;;;;;;;;;5051122;28;20221;-90
2022/03/15 07:25:51;;;;;;;7.57;4.13;;;;;;;;;;5054444;28;20205;-90
2022/03/15 07:28:19;;;;;;;5.37;4.13;;;;;;;;;;5039231;28;20260;-89
2022/03/15 07:30:46;;;;;;;4.50;3.57;;;;;;;;;;5048799;28;20267;-89
2022/03/15 07:33:22;;;;;;;4.10;3.63;;;;;;;;;;5044058;28;20805;-89
2022/03/15 07:35:49;;;;;;;5.33;3.43;;;;;;;;;;5049976;28;20214;-89
2022/03/15 07:38:17;;;;;;;9.80;4.50;;;;;;;;;;5049586;28;20215;-89
2022/03/15 07:40:45;;;;;;;7.70;4.13;;;;;;;;;;5042340;28;20303;-89
2022/03/15 07:43:12;;;;;;;4.63;3.47;;;;;;;;;;5049681;28;20226;-89
2022/03/15 07:45:39;;;;;;;7.37;3.90;;;;;;;;;;5054706;28;20746;-89
2022/03/15 07:48:07;;;;;;;4.93;4.00;;;;;;;;;;5044720;28;20214;-89
2022/03/15 07:50:36;;;;;;;7.03;3.87;;;;;;;;;;5032937;28;20211;-91
2022/03/15 07:53:03;;;;;;;6.60;3.90;;;;;;;;;;5048449;28;20254;-91
2022/03/15 07:55:31;;;;;;;5.33;4.07;;;;;;;;;;5050272;28;20280;-91
2022/03/15 07:57:58;;;;;;;6.73;4.10;;;;;;;;;;5049623;28;20210;-90
2022/03/15 08:00:25;;;;;;;4.60;3.73;;;;;;;;;;5042022;28;20214;-88
2022/03/15 08:02:53;;;;;;;7.83;4.87;;;;;;;;;;5048660;28;20221;-91
2022/03/15 08:05:20;;;;;;;6.03;4.00;;;;;;;;;;5051923;28;20202;-90
2022/03/15 08:07:49;;;;;;;5.70;4.30;;;;;;;;;;5050248;28;20252;-89
2022/03/15 08:10:16;;;;;;;7.70;3.80;;;;;;;;;;5047005;28;20236;-89
2022/03/15 08:12:46;;;;;;;9.90;5.10;;;;;;;;;;5053136;28;20283;-89
2022/03/15 08:15:13;;;;;;;4.80;3.60;;;;;;;;;;5059173;28;20198;-91
2022/03/15 08:17:41;;;;;;;7.63;4.70;;;;;;;;;;5050756;28;20213;-90
2022/03/15 08:20:09;;;;;;;10.43;5.33;;;;;;;;;;5053472;28;20669;-90
2022/03/15 08:22:37;;;;;;;11.13;5.40;;;;;;;;;;5054475;28;20226;-90
2022/03/15 08:25:06;;;;;;;7.23;5.00;;;;;;;;;;5053983;28;20209;-89
2022/03/15 08:27:34;;;;;;;8.93;5.00;;;;;;;;;;5055057;28;20214;-89
2022/03/15 08:30:01;;;;;;;11.03;5.50;;;;;;;;;;5052517;28;20669;-89
2022/03/15 08:32:28;;;;;;;7.37;5.33;;;;;;;;;;5054378;28;20226;-89
2022/03/15 08:34:56;;;;;;;9.23;5.10;;;;;;;;;;5054463;28;20649;-90
2022/03/15 08:37:23;;;;;;;7.87;5.67;;;;;;;;;;5047129;28;20221;-89
2022/03/15 08:39:50;;;;;;;11.63;5.47;;;;;;;;;;5053990;28;20213;-89
2022/03/15 08:42:21;;;;;;;6.67;5.00;;;;;;;;;;5054499;28;20206;-89
2022/03/15 08:44:48;;;;;;;9.37;4.90;;;;;;;;;;5062949;28;20198;-90
2022/03/15 08:47:24;;;;;;;10.10;4.93;;;;;;;;;;5048042;28;20202;-89
2022/03/15 08:49:52;;;;;;;8.17;4.63;;;;;;;;;;5054220;28;20290;-89
2022/03/15 08:52:19;;;;;;;12.27;6.07;;;;;;;;;;5054718;28;20344;-89
2022/03/15 08:54:46;;;;;;;10.90;5.73;;;;;;;;;;5052431;28;20206;-89
2022/03/15 08:57:14;;;;;;;10.63;6.63;;;;;;;;;;5053591;28;20640;-90
2022/03/15 08:59:44;;;;;;;8.30;4.53;;;;;;;;;;5054479;28;20289;-90
2022/03/15 09:02:12;;;;;;;6.83;5.00;;;;;;;;;;5033855;28;20222;-89
2022/03/15 09:04:39;;;;;;;6.10;4.13;;;;;;;;;;5049710;28;20285;-89
2022/03/15 09:07:13;;;;;;;9.23;5.37;;;;;;;;;;5053757;28;20210;-89
2022/03/15 09:09:41;;;;;;;7.77;4.77;;;;;;;;;;5051170;28;20262;-90
2022/03/15 09:12:09;;;;;;;10.33;5.10;;;;;;;;;;5051341;28;20228;-90
2022/03/15 09:14:37;;;;;;;5.40;4.17;;;;;;;;;;5048157;28;20293;-89
2022/03/15 09:17:06;;;;;;;7.43;4.50;;;;;;;;;;5051559;28;20221;-89
2022/03/15 09:19:35;;;;;;;5.90;3.97;;;;;;;;;;5053432;28;20560;-89
2022/03/15 09:22:04;;;;;;;6.37;4.27;;;;;;;;;;5048602;28;20206;-90
2022/03/15 09:24:33;;;;;;;6.97;5.00;;;;;;;;;;5052671;28;20233;-90
2022/03/15 09:27:00;;;;;;;9.23;4.50;;;;;;;;;;5054723;28;20202;-90
2022/03/15 09:29:27;;;;;;;5.47;3.93;;;;;;;;;;5055209;28;20271;-91
2022/03/15 09:31:55;;;;;;;5.17;3.70;;;;;;;;;;5046511;28;20260;-89
2022/03/15 09:34:25;;;;;;;8.13;4.30;;;;;;;;;;5054901;28;20230;-90
2022/03/15 09:36:54;;;;;;;7.57;4.83;;;;;;;;;;5056403;28;20198;-89
2022/03/15 09:39:22;;;;;;;6.43;4.10;;;;;;;;;;5048069;28;20203;-89
2022/03/15 09:41:50;;;;;;;6.70;3.97;;;;;;;;;;5050227;28;20210;-90
2022/03/15 09:44:19;;;;;;;6.50;4.30;;;;;;;;;;5044637;28;20279;-90
2022/03/15 09:46:50;;;;;;;7.07;3.77;;;;;;;;;;5049899;28;20206;-90
2022/03/15 09:49:20;;;;;;;8.33;3.97;;;;;;;;;;5053489;28;20218;-90
2022/03/15 09:51:49;;;;;;;4.93;3.60;;;;;;;;;;5059785;28;20256;-91
2022/03/15 09:54:17;;;;;;;9.40;3.73;;;;;;;;;;5056246;28;20225;-90
2022/03/15 09:56:45;;;;;;;4.53;3.37;;;;;;;;;;5054292;28;20213;-90
2022/03/15 09:59:14;;;;;;;4.33;3.40;;;;;;;;;;5051453;28;20355;-91
2022/03/15 10:01:42;;;;;;;6.37;3.63;;;;;;;;;;5043249;28;20477;-90
2022/03/15 10:04:09;;;;;;;8.17;3.60;;;;;;;;;;5042405;28;20218;-89
2022/03/15 10:06:37;;;;;;;5.20;3.90;;;;;;;;;;5051863;28;20237;-90
2022/03/15 10:09:06;;;;;;;7.00;3.73;;;;;;;;;;5051535;28;20292;-89
2022/03/15 10:11:33;;;;;;;4.73;3.50;;;;;;;;;;5039564;28;20214;-90
2022/03/15 10:14:01;;;;;;;8.50;3.73;;;;;;;;;;5043864;28;20226;-90
2022/03/15 10:16:32;;;;;;;6.00;3.70;;;;;;;;;;5044229;28;20256;-89
2022/03/15 10:19:00;;;;;;;9.00;4.40;;;;;;;;;;5044690;28;20210;-89
2022/03/15 10:21:27;;;;;;;5.37;4.30;;;;;;;;;;5049725;28;20608;-90
2022/03/15 10:23:55;;;;;;;5.67;3.93;;;;;;;;;;5050030;28;20242;-89
2022/03/15 10:26:25;;;;;;;6.83;3.83;;;;;;;;;;5051547;28;20216;-90
2022/03/15 10:28:53;;;;;;;7.73;4.10;;;;;;;;;;5050954;28;20601;-91
2022/03/15 10:31:23;;;;;;;5.33;3.10;;;;;;;;;;5046273;28;20264;-90
2022/03/15 10:33:51;;;;;;;8.27;3.50;;;;;;;;;;5051963;28;20313;-89
2022/03/15 10:36:19;;;;;;;10.10;3.87;;;;;;;;;;5047911;28;20206;-90
2022/03/15 10:38:47;;;;;;;5.00;3.57;;;;;;;;;;5047670;28;20284;-89
2022/03/15 10:41:15;;;;;;;5.20;3.90;;;;;;;;;;5051814;28;20201;-90
2022/03/15 10:43:51;;;;;;;5.60;3.90;;;;;;;;;;5052439;28;20729;-90
2022/03/15 10:46:23;;;;;;;8.03;4.07;;;;;;;;;;5046130;28;20267;-90
2022/03/15 10:48:54;;;;;;;8.33;3.70;;;;;;;;;;5059475;28;20251;-89
2022/03/15 10:51:21;;;;;;;4.97;3.47;;;;;;;;;;5049767;28;20627;-89
2022/03/15 10:53:50;;;;;;;5.47;3.57;;;;;;;;;;5052021;28;20230;-90
2022/03/15 10:56:18;;;;;;;7.43;3.67;;;;;;;;;;5044652;28;20201;-89
2022/03/15 10:58:48;;;;;;;3.40;3.03;;;;;;;;;;5042091;28;20202;-89
2022/03/15 11:01:17;;;;;;;7.20;3.87;;;;;;;;;;5050258;28;20566;-89
2022/03/15 11:03:55;;;;;;;4.17;3.23;;;;;;;;;;5046568;28;20234;-91
2022/03/15 11:06:30;;;;;;;4.43;3.47;;;;;;;;;;5049410;28;20292;-89
2022/03/15 11:08:58;;;;;;;7.30;3.57;;;;;;;;;;5050555;28;20300;-89
2022/03/15 11:11:27;;;;;;;4.87;3.17;;;;;;;;;;5043925;28;20219;-89
2022/03/15 11:14:02;;;;;;;5.67;3.40;;;;;;;;;;5043729;28;20261;-89
2022/03/15 11:16:31;;;;;;;5.03;3.70;;;;;;;;;;5046411;28;20296;-91
2022/03/15 11:18:59;;;;;;;4.03;3.47;;;;;;;;;;5048026;28;20488;-89
2022/03/15 11:21:27;;;;;;;7.43;4.00;;;;;;;;;;5048890;28;20971;-89
2022/03/15 11:23:58;;;;;;;3.87;3.50;;;;;;;;;;5049511;28;20236;-89
2022/03/15 11:26:28;;;;;;;4.73;3.63;;;;;;;;;;5050153;28;20213;-91
2022/03/15 11:28:56;;;;;;;6.60;4.00;;;;;;;;;;5046112;28;20217;-90
2022/03/15 11:31:25;;;;;;;4.17;3.50;;;;;;;;;;5049293;28;20209;-89
2022/03/15 11:33:54;;;;;;;4.83;3.57;;;;;;;;;;5051348;28;20222;-89
2022/03/15 11:36:25;;;;;;;9.13;4.20;;;;;;;;;;5049370;28;20562;-90
2022/03/15 11:38:52;;;;;;;6.30;4.17;;;;;;;;;;5052656;28;20202;-90
2022/03/15 11:41:20;;;;;;;4.77;4.13;;;;;;;;;;5053127;28;20202;-90
2022/03/15 11:44:00;;;;;;;7.87;4.20;;;;;;;;;;5053613;28;20283;-90
2022/03/15 11:46:43;;;;;;;4.20;3.80;;;;;;;;;;5048508;28;20201;-90
2022/03/15 11:49:18;;;;;;;7.77;4.57;;;;;;;;;;5052676;28;20296;-90
2022/03/15 11:51:49;;;;;;;7.43;4.83;;;;;;;;;;5053136;28;20212;-90
2022/03/15 11:54:41;;;;;;;4.63;3.87;;;;;;;;;;5053086;28;20222;-90
2022/03/15 11:57:10;;;;;;;6.57;4.10;;;;;;;;;;5050171;28;20229;-90
2022/03/15 11:59:53;;;;;;;7.80;4.83;;;;;;;;;;5047476;28;20251;-90
2022/03/15 12:02:40;;;;;;;5.00;4.30;;;;;;;;;;5046978;28;20194;-90
2022/03/15 12:05:17;;;;;;;7.77;5.00;;;;;;;;;;5044431;28;20194;-90
2022/03/15 12:07:50;;;;;;;7.20;4.63;;;;;;;;;;5049907;28;20199;-89
2022/03/15 12:10:27;;;;;;;9.70;4.73;;;;;;;;;;5046896;28;20248;-90
2022/03/15 12:13:02;;;;;;;7.87;5.17;;;;;;;;;;5052462;28;20375;-92
2022/03/15 12:15:39;;;;;;;6.70;4.50;;;;;;;;;;5052564;28;20279;-89
2022/03/15 12:18:18;;;;;;;6.50;4.97;;;;;;;;;;5045457;28;20292;-90
2022/03/15 12:20:48;;;;;;;6.80;5.83;;;;;;;;;;5053076;28;20209;-90
2022/03/15 12:23:22;;;;;;;12.57;7.90;;;;;;;;;;5052469;28;20259;-90
2022/03/15 12:25:53;;;;;;;10.87;8.47;;;;;;;;;;5052982;28;20198;-90
2022/03/15 12:28:27;;;;;;;13.07;8.07;;;;;;;;;;5050118;28;20218;-90
2022/03/15 12:30:54;;;;;;;11.90;7.03;;;;;;;;;;5052506;28;20214;-90
2022/03/15 12:33:28;;;;;;;10.60;5.90;;;;;;;;;;5052559;28;20279;-90
2022/03/15 12:36:02;;;;;;;5.13;4.47;;;;;;;;;;5057270;28;20244;-90
2022/03/15 12:38:35;;;;;;;8.07;5.10;;;;;;;;;;5053274;28;20213;-89
2022/03/15 12:41:02;;;;;;;4.97;4.10;;;;;;;;;;5050082;28;20217;-91
2022/03/15 12:43:31;;;;;;;9.00;5.67;;;;;;;;;;5049692;28;20226;-91
2022/03/15 12:46:02;;;;;;;8.63;6.33;;;;;;;;;;5047254;28;20307;-91
2022/03/15 12:48:30;;;;;;;9.17;6.10;;;;;;;;;;5051064;28;20218;-90
2022/03/15 12:51:01;;;;;;;7.70;5.40;;;;;;;;;;5044207;28;20202;-92
2022/03/15 12:53:37;;;;;;;12.10;6.73;;;;;;;;;;5050642;28;20667;-90
2022/03/15 12:56:04;;;;;;;12.30;6.90;;;;;;;;;;5050937;28;20247;-90
2022/03/15 12:58:43;;;;;;;9.50;6.50;;;;;;;;;;5038036;28;20207;-92
2022/03/15 13:01:12;;;;;;;11.70;6.53;;;;;;;;;;5050436;28;20197;-92
2022/03/15 13:03:42;;;;;;;10.80;6.43;;;;;;;;;;5046000;28;20636;-91
2022/03/15 13:06:17;;;;;;;13.73;6.43;;;;;;;;;;5042439;28;20608;-91
2022/03/15 13:08:55;;;;;;;8.23;6.03;;;;;;;;;;5045596;28;20209;-90
2022/03/15 13:11:24;;;;;;;11.63;6.20;;;;;;;;;;5044854;28;20213;-90
2022/03/15 13:13:52;;;;;;;8.47;5.83;;;;;;;;;;5044620;28;20230;-91
2022/03/15 13:16:23;;;;;;;9.47;6.50;;;;;;;;;;5046159;28;20206;-91
2022/03/15 13:18:50;;;;;;;9.30;6.50;;;;;;;;;;5043626;28;20206;-90
2022/03/15 13:21:17;;;;;;;10.07;7.10;;;;;;;;;;5040863;28;20609;-91
2022/03/15 13:23:48;;;;;;;9.07;7.03;;;;;;;;;;5040834;28;20327;-90
2022/03/15 13:26:19;;;;;;;9.60;6.17;;;;;;;;;;5051148;28;20196;-90
2022/03/15 13:28:47;;;;;;;9.90;6.23;;;;;;;;;;5040988;28;20206;-89
2022/03/15 13:31:15;;;;;;;11.97;6.43;;;;;;;;;;5052068;28;20297;-89
2022/03/15 13:33:44;;;;;;;8.73;5.40;;;;;;;;;;5050308;28;20279;-91
2022/03/15 13:36:15;;;;;;;10.10;7.23;;;;;;;;;;5044553;28;20222;-91
2022/03/15 13:38:45;;;;;;;9.90;6.90;;;;;;;;;;5052233;28;20206;-89
2022/03/15 13:41:14;;;;;;;7.77;6.07;;;;;;;;;;5055327;28;20374;-90
2022/03/15 13:43:44;;;;;;;9.93;6.33;;;;;;;;;;5052246;28;20246;-90
2022/03/15 13:46:13;;;;;;;8.47;6.40;;;;;;;;;;5047894;28;20217;-90
2022/03/15 13:48:42;;;;;;;11.53;6.20;;;;;;;;;;5053109;28;20572;-91
2022/03/15 13:51:10;;;;;;;8.20;6.10;;;;;;;;;;5052623;28;20575;-91
2022/03/15 13:53:38;;;;;;;8.07;6.10;;;;;;;;;;5047321;28;20244;-90
2022/03/15 13:56:10;;;;;;;9.57;6.80;;;;;;;;;;5045620;28;20742;-91
2022/03/15 13:58:37;;;;;;;9.97;6.97;;;;;;;;;;5048212;28;20855;-91
2022/03/15 14:01:09;;;;;;;7.60;6.07;;;;;;;;;;5045151;28;20202;-90
2022/03/15 14:03:37;;;;;;;9.53;5.90;;;;;;;;;;5051154;28;20226;-91
2022/03/15 14:06:09;;;;;;;11.07;6.03;;;;;;;;;;5048923;28;20198;-91
2022/03/15 14:08:50;;;;;;;11.77;6.17;;;;;;;;;;5046309;28;20256;-91
2022/03/15 14:11:18;;;;;;;7.57;6.07;;;;;;;;;;5043813;28;20210;-92
2022/03/15 14:13:56;;;;;;;8.57;6.07;;;;;;;;;;5050558;28;20238;-90
2022/03/15 14:16:35;;;;;;;8.67;6.23;;;;;;;;;;5040352;28;20202;-89
2022/03/15 14:19:03;;;;;;;10.80;5.93;;;;;;;;;;5049355;28;20201;-90
2022/03/15 14:21:30;;;;;;;9.37;6.20;;;;;;;;;;5050441;28;20237;-90
2022/03/15 14:23:58;;;;;;;12.20;6.33;;;;;;;;;;5044455;28;20261;-91
2022/03/15 14:26:39;;;;;;;6.93;5.10;;;;;;;;;;5046213;28;20221;-91
2022/03/15 14:29:11;;;;;;;8.10;5.70;;;;;;;;;;5041970;28;20322;-91
2022/03/15 14:31:43;;;;;;;12.83;6.37;;;;;;;;;;5047490;28;20289;-91
2022/03/15 14:34:12;;;;;;;13.30;7.27;;;;;;;;;;5044028;28;20226;-88
2022/03/15 14:36:39;;;;;;;10.50;7.77;;;;;;;;;;5047081;28;20271;-91
2022/03/15 14:39:13;;;;;;;11.67;6.87;;;;;;;;;;5049419;28;20210;-90
2022/03/15 14:41:42;;;;;;;14.47;6.33;;;;;;;;;;5041873;28;20477;-90
2022/03/15 14:44:10;;;;;;;15.13;7.60;;;;;;;;;;5043911;28;20226;-90
2022/03/15 14:46:38;;;;;;;10.90;7.20;;;;;;;;;;5046787;28;20214;-91
2022/03/15 14:49:07;;;;;;;10.50;7.03;;;;;;;;;;5029933;28;20222;-91
2022/03/15 14:51:35;;;;;;;10.67;7.03;;;;;;;;;;5039967;28;20209;-91
2022/03/15 14:54:03;;;;;;;12.13;6.97;;;;;;;;;;5048925;28;20233;-90